createdAt,value
2016-11-15T00:00:15.811Z,3.11
2016-11-15T00:01:15.570Z,3.18
2016-11-15T00:02:15.217Z,3.13
2016-11-15T00:03:15.738Z,3.11
2016-11-15T00:04:15.374Z,3.1
2016-11-15T00:05:15.727Z,3.13
2016-11-15T00:06:15.940Z,3.13
2016-11-15T00:07:16.072Z,3.07
2016-11-15T00:08:15.866Z,3.11
2016-11-15T00:09:16.922Z,3.1
2016-11-15T00:10:16.104Z,3.07
2016-11-15T00:11:15.618Z,3.04
2016-11-15T00:12:16.094Z,3.07
2016-11-15T00:13:16.461Z,3.08
2016-11-15T00:14:15.596Z,3.1
2016-11-15T00:15:17.045Z,3.13
2016-11-15T00:16:15.961Z,2.95
2016-11-15T00:17:16.468Z,2.98
2016-11-15T00:18:16.225Z,2.98
2016-11-15T00:19:17.159Z,3.04
2016-11-15T00:20:16.103Z,3.14
2016-11-15T00:21:17.063Z,3.11
2016-11-15T00:22:17.546Z,3.08
2016-11-15T00:23:16.108Z,3.13
2016-11-15T00:24:15.947Z,3.11
2016-11-15T00:25:17.378Z,3.14
2016-11-15T00:26:16.920Z,3.1
2016-11-15T00:27:16.661Z,3.13
2016-11-15T00:28:16.924Z,3.19
2016-11-15T00:29:17.555Z,3.14
2016-11-15T00:30:17.391Z,3.03
2016-11-15T00:31:16.950Z,3.19
2016-11-15T00:32:17.672Z,3.11
2016-11-15T00:33:17.917Z,3.14
2016-11-15T00:34:17.190Z,3.1
2016-11-15T00:35:17.889Z,3.14
2016-11-15T00:36:17.173Z,3.11
2016-11-15T00:37:17.198Z,3.18
2016-11-15T00:38:16.927Z,3.16
2016-11-15T00:39:19.342Z,3.14
2016-11-15T00:40:18.037Z,3.13
2016-11-15T00:41:17.560Z,3.08
2016-11-15T00:42:19.114Z,3.16
2016-11-15T00:43:19.944Z,3.1
2016-11-15T00:44:17.074Z,3.14
2016-11-15T00:45:18.160Z,3.18
2016-11-15T00:46:18.248Z,3.13
2016-11-15T00:47:18.261Z,3.11
2016-11-15T00:48:18.861Z,3.14
2016-11-15T00:49:18.278Z,3.1
2016-11-15T00:50:16.821Z,3.11
2016-11-15T00:51:18.039Z,3.05
2016-11-15T00:52:17.440Z,3.13
2016-11-15T00:53:17.923Z,3.11
2016-11-15T00:54:17.319Z,3.14
2016-11-15T00:55:17.324Z,3.13
2016-11-15T00:56:16.962Z,3.14
2016-11-15T00:57:17.757Z,3.13
2016-11-15T00:58:17.200Z,3.11
2016-11-15T00:59:17.206Z,3.14
2016-11-15T01:00:16.724Z,3.14
2016-11-15T01:01:16.725Z,3.1
2016-11-15T01:02:17.201Z,3.11
2016-11-15T01:03:17.219Z,3.08
2016-11-15T01:04:17.209Z,3.13
2016-11-15T01:05:16.964Z,3.11
2016-11-15T01:06:17.084Z,3.08
2016-11-15T01:07:17.331Z,3.13
2016-11-15T01:08:17.436Z,3.14
2016-11-15T01:09:16.849Z,3.19
2016-11-15T01:10:16.946Z,3.11
2016-11-15T01:11:16.613Z,3.19
2016-11-15T01:12:17.331Z,3.13
2016-11-15T01:13:17.090Z,3.13
2016-11-15T01:14:16.724Z,3.18
2016-11-15T01:15:16.961Z,3.16
2016-11-15T01:16:17.337Z,3.1
2016-11-15T01:17:16.724Z,3.19
2016-11-15T01:18:17.212Z,3.18
2016-11-15T01:19:17.439Z,3.19
2016-11-15T01:20:17.314Z,3.22
2016-11-15T01:21:16.370Z,3.11
2016-11-15T01:22:16.961Z,3.13
2016-11-15T01:23:17.088Z,3.19
2016-11-15T01:24:16.733Z,3.23
2016-11-15T01:25:16.739Z,3.22
2016-11-15T01:26:17.091Z,3.23
2016-11-15T01:27:17.098Z,3.25
2016-11-15T01:28:16.500Z,3.23
2016-11-15T01:29:16.731Z,3.22
2016-11-15T01:30:17.337Z,3.22
2016-11-15T01:31:16.965Z,3.22
2016-11-15T01:32:16.957Z,3.19
2016-11-15T01:33:16.837Z,3.23
2016-11-15T01:34:16.858Z,3.28
2016-11-15T01:35:17.070Z,3.26
2016-11-15T01:36:16.715Z,3.31
2016-11-15T01:37:17.080Z,3.29
2016-11-15T01:38:16.962Z,3.25
2016-11-15T01:39:16.840Z,3.26
2016-11-15T01:40:17.096Z,3.31
2016-11-15T01:41:16.709Z,3.23
2016-11-15T01:42:17.066Z,3.22
2016-11-15T01:43:16.753Z,3.19
2016-11-15T01:44:17.092Z,3.19
2016-11-15T01:45:17.468Z,3.16
2016-11-15T01:46:16.855Z,3.26
2016-11-15T01:47:17.081Z,3.23
2016-11-15T01:48:16.749Z,3.21
2016-11-15T01:49:16.994Z,3.19
2016-11-15T01:50:16.851Z,3.19
2016-11-15T01:51:16.843Z,3.19
2016-11-15T01:52:17.207Z,3.16
2016-11-15T01:53:16.874Z,3.21
2016-11-15T01:54:16.757Z,3.08
2016-11-15T01:55:17.082Z,3.13
2016-11-15T01:56:16.846Z,3.16
2016-11-15T01:57:17.332Z,3.08
2016-11-15T01:58:16.851Z,3.1
2016-11-15T01:59:16.743Z,3.18
2016-11-15T02:00:16.762Z,3.1
2016-11-15T02:01:17.117Z,3.13
2016-11-15T02:02:16.981Z,3.16
2016-11-15T02:03:16.850Z,3.1
2016-11-15T02:04:16.868Z,3.03
2016-11-15T02:05:16.850Z,3.08
2016-11-15T02:06:17.351Z,3.11
2016-11-15T02:07:17.200Z,3.07
2016-11-15T02:08:17.321Z,3.04
2016-11-15T02:09:16.856Z,3.04
2016-11-15T02:10:16.842Z,3.01
2016-11-15T02:11:17.242Z,3.1
2016-11-15T02:12:17.358Z,3.08
2016-11-15T02:13:16.985Z,3.05
2016-11-15T02:14:16.883Z,3.03
2016-11-15T02:15:17.346Z,3.08
2016-11-15T02:16:16.981Z,3.13
2016-11-15T02:17:17.489Z,3.1
2016-11-15T02:18:16.880Z,2.98
2016-11-15T02:19:17.246Z,3.03
2016-11-15T02:20:17.083Z,3.04
2016-11-15T02:21:16.887Z,3.1
2016-11-15T02:22:17.487Z,3.04
2016-11-15T02:23:17.250Z,3.03
2016-11-15T02:24:17.217Z,3.08
2016-11-15T02:25:17.458Z,3.01
2016-11-15T02:26:17.255Z,3.05
2016-11-15T02:27:17.701Z,3.07
2016-11-15T02:28:17.487Z,2.95
2016-11-15T02:29:17.615Z,2.97
2016-11-15T02:30:17.226Z,2.93
2016-11-15T02:31:17.126Z,2.86
2016-11-15T02:32:17.824Z,2.83
2016-11-15T02:33:17.580Z,2.83
2016-11-15T02:34:17.711Z,2.8
2016-11-15T02:35:17.697Z,2.82
2016-11-15T02:36:17.353Z,2.82
2016-11-15T02:37:17.841Z,2.71
2016-11-15T02:38:17.464Z,2.71
2016-11-15T02:39:17.709Z,2.69
2016-11-15T02:40:17.497Z,2.64
2016-11-15T02:41:17.590Z,2.6
2016-11-15T02:42:18.454Z,2.56
2016-11-15T02:43:17.240Z,2.64
2016-11-15T02:44:18.197Z,2.65
2016-11-15T02:45:17.827Z,2.51
2016-11-15T02:46:17.505Z,2.61
2016-11-15T02:47:17.613Z,2.6
2016-11-15T02:48:17.357Z,2.5
2016-11-15T02:49:17.879Z,2.5
2016-11-15T02:50:17.818Z,2.51
2016-11-15T02:51:17.716Z,2.43
2016-11-15T02:52:18.097Z,2.44
2016-11-15T02:53:17.580Z,2.42
2016-11-15T02:54:17.699Z,2.53
2016-11-15T02:55:18.077Z,2.43
2016-11-15T02:56:17.485Z,2.46
2016-11-15T02:57:17.996Z,2.31
2016-11-15T02:58:18.065Z,2.38
2016-11-15T02:59:17.859Z,2.32
2016-11-15T03:00:18.082Z,2.24
2016-11-15T03:01:18.229Z,2.28
2016-11-15T03:02:17.972Z,2.29
2016-11-15T03:03:18.471Z,2.15
2016-11-15T03:04:17.716Z,2.24
2016-11-15T03:05:17.876Z,2.2
2016-11-15T03:06:18.326Z,2.24
2016-11-15T03:07:17.642Z,2.18
2016-11-15T03:08:17.996Z,2.24
2016-11-15T03:09:17.515Z,2.32
2016-11-15T03:10:17.634Z,2.15
2016-11-15T03:11:17.997Z,2.18
2016-11-15T03:12:17.959Z,2.15
2016-11-15T03:13:17.717Z,2.13
2016-11-15T03:14:18.013Z,2.06
2016-11-15T03:15:18.344Z,2.18
2016-11-15T03:16:17.705Z,2.13
2016-11-15T03:17:17.880Z,2.13
2016-11-15T03:18:17.628Z,2.07
2016-11-15T03:19:18.479Z,2.22
2016-11-15T03:20:17.859Z,2.07
2016-11-15T03:21:18.810Z,2.13
2016-11-15T03:22:18.358Z,2.1
2016-11-15T03:23:17.902Z,2.08
2016-11-15T03:24:18.202Z,2.11
2016-11-15T03:25:17.953Z,2.1
2016-11-15T03:26:18.211Z,2.17
2016-11-15T03:27:18.792Z,2.06
2016-11-15T03:28:17.961Z,1.97
2016-11-15T03:29:17.953Z,1.97
2016-11-15T03:30:18.207Z,1.97
2016-11-15T03:31:18.695Z,1.95
2016-11-15T03:32:18.598Z,1.94
2016-11-15T03:33:17.880Z,1.99
2016-11-15T03:34:18.338Z,2.04
2016-11-15T03:35:18.677Z,2.06
2016-11-15T03:36:18.971Z,2.13
2016-11-15T03:37:18.362Z,2.06
2016-11-15T03:38:18.571Z,2
2016-11-15T03:39:18.126Z,1.92
2016-11-15T03:40:18.488Z,1.97
2016-11-15T03:41:18.690Z,1.97
2016-11-15T03:42:18.253Z,2.02
2016-11-15T03:43:18.611Z,1.97
2016-11-15T03:44:18.613Z,1.97
2016-11-15T03:45:18.466Z,1.99
2016-11-15T03:46:18.463Z,2.13
2016-11-15T03:47:18.260Z,2.13
2016-11-15T03:48:19.543Z,2.14
2016-11-15T03:49:18.467Z,1.99
2016-11-15T03:50:18.945Z,2.04
2016-11-15T03:51:19.096Z,2.02
2016-11-15T03:52:19.218Z,2.02
2016-11-15T03:53:19.187Z,2
2016-11-15T03:54:18.689Z,2.06
2016-11-15T03:55:19.050Z,2.06
2016-11-15T03:56:18.708Z,2.06
2016-11-15T03:57:18.866Z,2.1
2016-11-15T03:58:18.854Z,1.97
2016-11-15T03:59:19.676Z,2.02
2016-11-15T04:00:18.746Z,2.02
2016-11-15T04:01:20.046Z,1.95
2016-11-15T04:02:19.460Z,1.97
2016-11-15T04:03:19.071Z,2.13
2016-11-15T04:04:19.100Z,1.97
2016-11-15T04:05:20.201Z,1.99
2016-11-15T04:06:19.082Z,1.95
2016-11-15T04:07:19.089Z,2
2016-11-15T04:08:19.455Z,1.94
2016-11-15T04:09:19.442Z,1.95
2016-11-15T04:10:19.466Z,1.94
2016-11-15T04:11:19.710Z,1.95
2016-11-15T04:12:20.192Z,1.94
2016-11-15T04:13:19.300Z,1.95
2016-11-15T04:14:19.107Z,1.95
2016-11-15T04:15:19.202Z,1.97
2016-11-15T04:16:19.431Z,1.95
2016-11-15T04:17:19.209Z,1.92
2016-11-15T04:18:19.443Z,1.94
2016-11-15T04:19:19.209Z,1.89
2016-11-15T04:20:19.310Z,1.92
2016-11-15T04:21:19.227Z,1.94
2016-11-15T04:22:19.121Z,1.89
2016-11-15T04:23:19.104Z,1.92
2016-11-15T04:24:18.992Z,1.84
2016-11-15T04:25:18.993Z,1.85
2016-11-15T04:26:19.592Z,1.87
2016-11-15T04:27:20.306Z,1.87
2016-11-15T04:28:19.108Z,1.8
2016-11-15T04:29:19.690Z,1.8
2016-11-15T04:30:19.682Z,1.89
2016-11-15T04:31:19.120Z,1.87
2016-11-15T04:32:20.081Z,1.85
2016-11-15T04:33:19.716Z,1.84
2016-11-15T04:34:19.356Z,1.91
2016-11-15T04:35:19.120Z,1.8
2016-11-15T04:36:19.112Z,1.94
2016-11-15T04:37:19.720Z,1.97
2016-11-15T04:38:19.928Z,1.91
2016-11-15T04:39:19.555Z,1.88
2016-11-15T04:40:19.820Z,1.85
2016-11-15T04:41:19.716Z,1.87
2016-11-15T04:42:19.208Z,1.95
2016-11-15T04:43:19.832Z,1.8
2016-11-15T04:44:19.841Z,1.78
2016-11-15T04:45:19.723Z,1.87
2016-11-15T04:46:19.122Z,1.85
2016-11-15T04:47:20.059Z,1.77
2016-11-15T04:48:19.962Z,1.87
2016-11-15T04:49:19.720Z,1.76
2016-11-15T04:50:19.447Z,1.8
2016-11-15T04:51:19.718Z,1.8
2016-11-15T04:52:20.306Z,1.85
2016-11-15T04:53:19.703Z,1.81
2016-11-15T04:54:19.928Z,1.85
2016-11-15T04:55:19.123Z,1.76
2016-11-15T04:56:20.209Z,1.84
2016-11-15T04:57:19.238Z,1.77
2016-11-15T04:58:19.490Z,1.84
2016-11-15T04:59:19.592Z,1.85
2016-11-15T05:00:20.329Z,1.84
2016-11-15T05:01:19.848Z,1.81
2016-11-15T05:02:19.712Z,1.84
2016-11-15T05:03:19.932Z,1.87
2016-11-15T05:04:19.463Z,1.78
2016-11-15T05:05:19.340Z,1.8
2016-11-15T05:06:19.134Z,1.76
2016-11-15T05:07:19.487Z,1.74
2016-11-15T05:08:19.498Z,1.78
2016-11-15T05:09:19.461Z,1.81
2016-11-15T05:10:19.959Z,1.84
2016-11-15T05:11:20.185Z,1.74
2016-11-15T05:12:20.694Z,1.8
2016-11-15T05:13:19.489Z,1.73
2016-11-15T05:14:19.972Z,1.84
2016-11-15T05:15:19.743Z,1.89
2016-11-15T05:16:19.977Z,1.73
2016-11-15T05:17:19.605Z,1.8
2016-11-15T05:18:19.601Z,1.87
2016-11-15T05:19:19.502Z,1.85
2016-11-15T05:20:20.103Z,1.85
2016-11-15T05:21:19.970Z,1.77
2016-11-15T05:22:19.726Z,1.81
2016-11-15T05:23:19.739Z,1.84
2016-11-15T05:24:19.859Z,1.8
2016-11-15T05:25:20.070Z,1.84
2016-11-15T05:26:20.087Z,1.8
2016-11-15T05:27:19.593Z,1.78
2016-11-15T05:28:19.974Z,1.88
2016-11-15T05:29:19.700Z,1.84
2016-11-15T05:30:20.069Z,1.8
2016-11-15T05:31:20.345Z,1.87
2016-11-15T05:32:19.738Z,1.88
2016-11-15T05:33:20.208Z,1.84
2016-11-15T05:34:19.835Z,1.87
2016-11-15T05:35:20.232Z,1.74
2016-11-15T05:36:20.330Z,1.78
2016-11-15T05:37:19.962Z,1.76
2016-11-15T05:38:20.582Z,1.84
2016-11-15T05:39:19.959Z,1.8
2016-11-15T05:40:20.434Z,1.81
2016-11-15T05:41:20.676Z,1.85
2016-11-15T05:42:19.957Z,1.77
2016-11-15T05:43:20.469Z,1.84
2016-11-15T05:44:19.733Z,1.85
2016-11-15T05:45:20.339Z,1.85
2016-11-15T05:46:20.221Z,1.87
2016-11-15T05:47:20.102Z,1.85
2016-11-15T05:48:20.113Z,1.85
2016-11-15T05:49:19.973Z,1.81
2016-11-15T05:50:20.730Z,1.85
2016-11-15T05:51:20.191Z,1.81
2016-11-15T05:52:20.469Z,1.81
2016-11-15T05:53:20.241Z,1.74
2016-11-15T05:54:19.843Z,1.8
2016-11-15T05:55:19.759Z,1.78
2016-11-15T05:56:20.370Z,1.78
2016-11-15T05:57:20.988Z,1.74
2016-11-15T05:58:20.366Z,1.78
2016-11-15T05:59:20.007Z,1.74
2016-11-15T06:00:19.848Z,1.77
2016-11-15T06:01:20.225Z,1.74
2016-11-15T06:02:20.217Z,1.74
2016-11-15T06:03:20.849Z,1.74
2016-11-15T06:04:20.446Z,1.73
2016-11-15T06:05:20.444Z,1.81
2016-11-15T06:06:20.099Z,1.7
2016-11-15T06:07:20.368Z,1.7
2016-11-15T06:08:20.374Z,1.7
2016-11-15T06:09:20.447Z,1.74
2016-11-15T06:10:21.065Z,1.68
2016-11-15T06:11:20.575Z,1.63
2016-11-15T06:12:20.830Z,1.76
2016-11-15T06:13:20.373Z,1.74
2016-11-15T06:14:20.572Z,1.7
2016-11-15T06:15:21.091Z,1.7
2016-11-15T06:16:20.613Z,1.68
2016-11-15T06:17:20.753Z,1.71
2016-11-15T06:18:20.943Z,1.74
2016-11-15T06:19:20.376Z,1.71
2016-11-15T06:20:21.296Z,1.81
2016-11-15T06:21:20.222Z,1.76
2016-11-15T06:22:20.749Z,1.71
2016-11-15T06:23:20.859Z,1.74
2016-11-15T06:24:20.688Z,1.78
2016-11-15T06:25:20.823Z,1.74
2016-11-15T06:26:20.833Z,1.71
2016-11-15T06:27:20.933Z,1.67
2016-11-15T06:28:21.068Z,1.7
2016-11-15T06:29:20.626Z,1.67
2016-11-15T06:30:21.202Z,1.73
2016-11-15T06:31:21.457Z,1.68
2016-11-15T06:32:21.421Z,1.67
2016-11-15T06:33:22.027Z,1.71
2016-11-15T06:34:21.186Z,1.62
2016-11-15T06:35:20.976Z,1.73
2016-11-15T06:36:21.431Z,1.67
2016-11-15T06:37:22.186Z,1.67
2016-11-15T06:38:21.298Z,1.7
2016-11-15T06:39:20.627Z,1.68
2016-11-15T06:40:21.346Z,1.7
2016-11-15T06:41:20.861Z,1.74
2016-11-15T06:42:20.860Z,1.73
2016-11-15T06:43:20.870Z,1.73
2016-11-15T06:44:21.955Z,1.74
2016-11-15T06:45:21.449Z,1.73
2016-11-15T06:46:21.827Z,1.7
2016-11-15T06:47:21.059Z,1.67
2016-11-15T06:48:20.983Z,1.66
2016-11-15T06:49:21.099Z,1.67
2016-11-15T06:50:21.119Z,1.68
2016-11-15T06:51:21.234Z,1.71
2016-11-15T06:52:21.108Z,1.76
2016-11-15T06:53:21.193Z,1.76
2016-11-15T06:54:22.197Z,1.74
2016-11-15T06:55:22.310Z,1.78
2016-11-15T06:56:21.242Z,1.73
2016-11-15T06:57:21.905Z,1.78
2016-11-15T06:58:21.470Z,1.74
2016-11-15T06:59:21.229Z,1.71
2016-11-15T07:00:22.386Z,1.68
2016-11-15T07:01:22.043Z,1.67
2016-11-15T07:02:21.957Z,1.74
2016-11-15T07:03:22.323Z,1.71
2016-11-15T07:04:22.768Z,1.81
2016-11-15T07:05:22.401Z,1.8
2016-11-15T07:06:21.233Z,1.71
2016-11-15T07:07:21.473Z,1.84
2016-11-15T07:08:21.835Z,1.73
2016-11-15T07:09:21.560Z,1.68
2016-11-15T07:10:22.190Z,1.76
2016-11-15T07:11:23.046Z,1.78
2016-11-15T07:12:22.197Z,1.77
2016-11-15T07:13:21.848Z,1.77
2016-11-15T07:14:20.619Z,1.81
2016-11-15T07:15:20.509Z,1.8
2016-11-15T07:16:20.881Z,1.87
2016-11-15T07:17:20.508Z,1.76
2016-11-15T07:18:20.634Z,1.8
2016-11-15T07:19:21.831Z,1.87
2016-11-15T07:20:22.149Z,1.84
2016-11-15T07:21:20.802Z,1.85
2016-11-15T07:22:20.620Z,1.84
2016-11-15T07:23:20.853Z,1.8
2016-11-15T07:24:21.421Z,1.87
2016-11-15T07:25:21.240Z,1.8
2016-11-15T07:26:21.354Z,1.8
2016-11-15T07:27:21.584Z,1.84
2016-11-15T07:28:21.490Z,1.87
2016-11-15T07:29:21.545Z,1.78
2016-11-15T07:30:21.150Z,1.85
2016-11-15T07:31:21.043Z,1.84
2016-11-15T07:32:21.052Z,1.88
2016-11-15T07:33:21.237Z,1.85
2016-11-15T07:34:20.946Z,1.87
2016-11-15T07:35:21.085Z,1.78
2016-11-15T07:36:20.907Z,1.85
2016-11-15T07:37:20.945Z,1.8
2016-11-15T07:38:20.830Z,1.91
2016-11-15T07:39:21.924Z,1.88
2016-11-15T07:40:21.339Z,1.81
2016-11-15T07:41:20.851Z,1.85
2016-11-15T07:42:20.738Z,1.8
2016-11-15T07:43:20.974Z,1.85
2016-11-15T07:44:21.045Z,1.88
2016-11-15T07:45:21.356Z,1.88
2016-11-15T07:46:20.963Z,1.94
2016-11-15T07:47:20.919Z,1.95
2016-11-15T07:48:21.556Z,1.92
2016-11-15T07:49:21.930Z,1.92
2016-11-15T07:50:21.279Z,1.91
2016-11-15T07:51:21.012Z,2
2016-11-15T07:52:21.045Z,1.94
2016-11-15T07:53:21.111Z,1.92
2016-11-15T07:54:21.141Z,1.99
2016-11-15T07:55:21.214Z,1.94
2016-11-15T07:56:21.105Z,1.97
2016-11-15T07:57:21.885Z,1.92
2016-11-15T07:58:21.410Z,1.91
2016-11-15T07:59:21.569Z,1.99
2016-11-15T08:00:21.320Z,1.99
2016-11-15T08:01:21.589Z,2
2016-11-15T08:02:21.430Z,2.04
2016-11-15T08:03:22.050Z,2.04
2016-11-15T08:04:21.920Z,2
2016-11-15T08:05:21.442Z,1.97
2016-11-15T08:06:21.692Z,1.97
2016-11-15T08:07:21.552Z,1.92
2016-11-15T08:08:22.060Z,1.92
2016-11-15T08:09:21.527Z,1.88
2016-11-15T08:10:22.170Z,1.94
2016-11-15T08:11:21.961Z,1.92
2016-11-15T08:12:21.536Z,1.94
2016-11-15T08:13:21.956Z,2
2016-11-15T08:14:21.948Z,1.91
2016-11-15T08:15:21.439Z,2
2016-11-15T08:16:21.372Z,1.95
2016-11-15T08:17:22.177Z,1.89
2016-11-15T08:18:21.807Z,1.97
2016-11-15T08:19:21.811Z,2
2016-11-15T08:20:21.997Z,1.99
2016-11-15T08:21:21.861Z,1.94
2016-11-15T08:22:22.010Z,2.02
2016-11-15T08:23:22.041Z,2.02
2016-11-15T08:24:22.012Z,2
2016-11-15T08:25:21.905Z,1.94
2016-11-15T08:26:21.869Z,1.97
2016-11-15T08:27:21.539Z,1.91
2016-11-15T08:28:21.444Z,1.97
2016-11-15T08:29:21.934Z,2
2016-11-15T08:30:22.125Z,1.94
2016-11-15T08:31:22.131Z,1.91
2016-11-15T08:32:21.786Z,1.89
2016-11-15T08:33:21.526Z,1.92
2016-11-15T08:34:22.526Z,2.04
2016-11-15T08:35:21.965Z,2.04
2016-11-15T08:36:21.910Z,1.97
2016-11-15T08:37:21.884Z,1.97
2016-11-15T08:38:21.932Z,2.04
2016-11-15T08:39:21.628Z,2.14
2016-11-15T08:40:21.889Z,2.06
2016-11-15T08:41:22.047Z,2.15
2016-11-15T08:42:21.620Z,2.13
2016-11-15T08:43:22.005Z,2.07
2016-11-15T08:44:22.529Z,2.07
2016-11-15T08:45:22.173Z,2.14
2016-11-15T08:46:22.175Z,2.17
2016-11-15T08:47:21.764Z,2.15
2016-11-15T08:48:22.291Z,2.15
2016-11-15T08:49:22.125Z,2.15
2016-11-15T08:50:21.865Z,2.15
2016-11-15T08:51:22.526Z,2.18
2016-11-15T08:52:21.968Z,2.22
2016-11-15T08:53:22.177Z,2.18
2016-11-15T08:54:21.849Z,2.14
2016-11-15T08:55:21.956Z,2.11
2016-11-15T08:56:22.462Z,2.17
2016-11-15T08:57:22.205Z,2.2
2016-11-15T08:58:22.424Z,2.18
2016-11-15T08:59:22.117Z,2.17
2016-11-15T09:00:22.287Z,2.22
2016-11-15T09:01:22.366Z,2.15
2016-11-15T09:02:22.603Z,2.17
2016-11-15T09:03:22.276Z,2.17
2016-11-15T09:04:22.485Z,2.15
2016-11-15T09:05:22.176Z,2.17
2016-11-15T09:06:21.951Z,2.18
2016-11-15T09:07:22.293Z,2.24
2016-11-15T09:08:22.310Z,2.2
2016-11-15T09:09:22.342Z,2.26
2016-11-15T09:10:21.942Z,2.18
2016-11-15T09:11:22.734Z,2.24
2016-11-15T09:12:22.745Z,2.18
2016-11-15T09:13:22.190Z,2.26
2016-11-15T09:14:22.172Z,2.14
2016-11-15T09:15:22.255Z,2.24
2016-11-15T09:16:22.221Z,2.18
2016-11-15T09:17:22.234Z,2.18
2016-11-15T09:18:22.435Z,2.25
2016-11-15T09:19:22.610Z,2.26
2016-11-15T09:20:22.571Z,2.18
2016-11-15T09:21:23.063Z,2.18
2016-11-15T09:22:22.597Z,2.2
2016-11-15T09:23:22.714Z,2.26
2016-11-15T09:24:22.890Z,2.25
2016-11-15T09:25:22.211Z,2.25
2016-11-15T09:26:22.220Z,2.22
2016-11-15T09:27:22.251Z,2.2
2016-11-15T09:28:22.289Z,2.28
2016-11-15T09:29:22.898Z,2.24
2016-11-15T09:30:23.207Z,2.32
2016-11-15T09:31:22.384Z,2.31
2016-11-15T09:32:22.426Z,2.25
2016-11-15T09:33:23.073Z,2.29
2016-11-15T09:34:22.297Z,2.33
2016-11-15T09:35:22.638Z,2.28
2016-11-15T09:36:22.606Z,2.31
2016-11-15T09:37:23.257Z,2.24
2016-11-15T09:38:22.946Z,2.2
2016-11-15T09:39:22.827Z,2.22
2016-11-15T09:40:22.827Z,2.26
2016-11-15T09:41:22.372Z,2.26
2016-11-15T09:42:23.145Z,2.29
2016-11-15T09:43:23.026Z,2.28
2016-11-15T09:44:23.028Z,2.25
2016-11-15T09:45:22.836Z,2.35
2016-11-15T09:46:22.806Z,2.38
2016-11-15T09:47:23.486Z,2.35
2016-11-15T09:48:22.809Z,2.31
2016-11-15T09:49:22.525Z,2.32
2016-11-15T09:50:22.782Z,2.36
2016-11-15T09:51:23.376Z,2.36
2016-11-15T09:52:22.658Z,2.32
2016-11-15T09:53:22.995Z,2.38
2016-11-15T09:54:22.911Z,2.39
2016-11-15T09:55:22.831Z,2.31
2016-11-15T09:56:22.766Z,2.33
2016-11-15T09:57:23.146Z,2.43
2016-11-15T09:58:23.100Z,2.43
2016-11-15T09:59:23.056Z,2.5
2016-11-15T10:00:23.013Z,2.43
2016-11-15T10:01:22.694Z,2.42
2016-11-15T10:02:23.324Z,2.39
2016-11-15T10:03:22.814Z,2.43
2016-11-15T10:04:23.030Z,2.44
2016-11-15T10:05:23.360Z,2.46
2016-11-15T10:06:22.787Z,2.46
2016-11-15T10:07:22.961Z,2.43
2016-11-15T10:08:23.042Z,2.43
2016-11-15T10:09:22.957Z,2.5
2016-11-15T10:10:22.958Z,2.46
2016-11-15T10:11:23.095Z,2.54
2016-11-15T10:12:22.872Z,2.47
2016-11-15T10:13:22.926Z,2.51
2016-11-15T10:14:22.967Z,2.5
2016-11-15T10:15:23.261Z,2.53
2016-11-15T10:16:22.803Z,2.51
2016-11-15T10:17:23.225Z,2.54
2016-11-15T10:18:22.985Z,2.5
2016-11-15T10:19:23.187Z,2.56
2016-11-15T10:20:23.166Z,2.56
2016-11-15T10:21:22.920Z,2.54
2016-11-15T10:22:22.904Z,2.51
2016-11-15T10:23:23.649Z,2.67
2016-11-15T10:24:23.173Z,2.6
2016-11-15T10:25:23.738Z,2.57
2016-11-15T10:26:23.170Z,2.61
2016-11-15T10:27:23.475Z,2.61
2016-11-15T10:28:23.447Z,2.62
2016-11-15T10:29:23.127Z,2.64
2016-11-15T10:30:23.234Z,2.62
2016-11-15T10:31:22.958Z,2.6
2016-11-15T10:32:23.226Z,2.67
2016-11-15T10:33:23.247Z,2.6
2016-11-15T10:34:23.119Z,2.6
2016-11-15T10:35:23.469Z,2.6
2016-11-15T10:36:23.546Z,2.62
2016-11-15T10:37:23.417Z,2.6
2016-11-15T10:38:23.046Z,2.6
2016-11-15T10:39:23.397Z,2.51
2016-11-15T10:40:23.297Z,2.62
2016-11-15T10:41:23.379Z,2.57
2016-11-15T10:42:23.392Z,2.6
2016-11-15T10:43:23.508Z,2.5
2016-11-15T10:44:23.499Z,2.64
2016-11-15T10:45:23.732Z,2.64
2016-11-15T10:46:23.747Z,2.57
2016-11-15T10:47:23.748Z,2.62
2016-11-15T10:48:24.232Z,2.64
2016-11-15T10:49:24.211Z,2.56
2016-11-15T10:50:23.452Z,2.64
2016-11-15T10:51:23.419Z,2.61
2016-11-15T10:52:23.422Z,2.69
2016-11-15T10:53:23.780Z,2.71
2016-11-15T10:54:23.417Z,2.69
2016-11-15T10:55:23.702Z,2.71
2016-11-15T10:56:23.945Z,2.71
2016-11-15T10:57:23.324Z,2.77
2016-11-15T10:58:24.113Z,2.77
2016-11-15T10:59:23.377Z,2.71
2016-11-15T11:00:24.244Z,2.72
2016-11-15T11:01:23.639Z,2.8
2016-11-15T11:02:23.873Z,2.71
2016-11-15T11:03:23.641Z,2.69
2016-11-15T11:04:24.173Z,2.77
2016-11-15T11:05:24.003Z,2.82
2016-11-15T11:06:23.533Z,2.82
2016-11-15T11:07:23.584Z,2.85
2016-11-15T11:08:23.674Z,2.8
2016-11-15T11:09:24.560Z,2.92
2016-11-15T11:10:24.176Z,2.82
2016-11-15T11:11:23.775Z,2.86
2016-11-15T11:12:24.710Z,2.86
2016-11-15T11:13:23.962Z,2.86
2016-11-15T11:14:23.793Z,2.9
2016-11-15T11:15:23.561Z,2.86
2016-11-15T11:16:23.972Z,2.97
2016-11-15T11:17:24.372Z,3.01
2016-11-15T11:18:23.572Z,2.97
2016-11-15T11:19:24.257Z,2.87
2016-11-15T11:20:24.322Z,2.93
2016-11-15T11:21:24.217Z,2.93
2016-11-15T11:22:23.884Z,2.93
2016-11-15T11:23:24.166Z,2.98
2016-11-15T11:24:23.863Z,2.93
2016-11-15T11:25:23.993Z,2.98
2016-11-15T11:26:24.356Z,2.93
2016-11-15T11:27:24.226Z,2.92
2016-11-15T11:28:23.905Z,2.92
2016-11-15T11:29:24.037Z,3.01
2016-11-15T11:30:24.023Z,2.95
2016-11-15T11:31:24.490Z,2.9
2016-11-15T11:32:24.124Z,3.08
2016-11-15T11:33:24.431Z,2.95
2016-11-15T11:34:24.096Z,3.05
2016-11-15T11:35:24.310Z,3.03
2016-11-15T11:36:24.304Z,3.05
2016-11-15T11:37:24.361Z,3.07
2016-11-15T11:38:24.842Z,3.05
2016-11-15T11:39:24.114Z,3.05
2016-11-15T11:40:24.381Z,3.04
2016-11-15T11:41:24.374Z,3.04
2016-11-15T11:42:24.397Z,3.08
2016-11-15T11:43:24.357Z,3.07
2016-11-15T11:44:24.330Z,3.07
2016-11-15T11:45:24.232Z,2.98
2016-11-15T11:46:24.550Z,3.1
2016-11-15T11:47:24.186Z,3.13
2016-11-15T11:48:24.711Z,3.1
2016-11-15T11:49:24.460Z,3.11
2016-11-15T11:50:25.037Z,3.04
2016-11-15T11:51:24.690Z,3.08
2016-11-15T11:52:24.096Z,3.11
2016-11-15T11:53:24.172Z,3.11
2016-11-15T11:54:24.507Z,3.16
2016-11-15T11:55:24.497Z,3.04
2016-11-15T11:56:24.351Z,3.14
2016-11-15T11:57:24.772Z,2.93
2016-11-15T11:58:24.435Z,3.08
2016-11-15T11:59:23.947Z,3.07
2016-11-15T12:00:24.276Z,3.14
2016-11-15T12:01:24.499Z,3.1
2016-11-15T12:02:25.312Z,3.18
2016-11-15T12:03:24.695Z,3.03
2016-11-15T12:04:25.034Z,3.08
2016-11-15T12:05:24.459Z,3.14
2016-11-15T12:06:25.945Z,3.13
2016-11-15T12:07:24.713Z,3.1
2016-11-15T12:08:25.145Z,3.08
2016-11-15T12:09:25.229Z,3.13
2016-11-15T12:10:24.892Z,3.11
2016-11-15T12:11:24.793Z,3.11
2016-11-15T12:12:24.735Z,3.13
2016-11-15T12:13:24.775Z,3.03
2016-11-15T12:14:25.090Z,3.04
2016-11-15T12:15:25.675Z,3.1
2016-11-15T12:16:24.802Z,3.11
2016-11-15T12:17:24.652Z,3.1
2016-11-15T12:18:25.123Z,3.08
2016-11-15T12:19:25.730Z,3.13
2016-11-15T12:20:25.587Z,3.19
2016-11-15T12:21:24.957Z,3.11
2016-11-15T12:22:25.295Z,3.08
2016-11-15T12:23:24.988Z,3.18
2016-11-15T12:24:25.329Z,3.11
2016-11-15T12:25:25.250Z,3.19
2016-11-15T12:26:25.228Z,3.11
2016-11-15T12:27:25.445Z,3.14
2016-11-15T12:28:25.637Z,3.14
2016-11-15T12:29:25.205Z,3.14
2016-11-15T12:30:24.883Z,3.13
2016-11-15T12:31:25.795Z,3.16
2016-11-15T12:32:25.877Z,3.14
2016-11-15T12:33:25.138Z,3.19
2016-11-15T12:34:25.268Z,3.16
2016-11-15T12:35:25.244Z,3.1
2016-11-15T12:36:25.156Z,3.14
2016-11-15T12:37:25.252Z,3.18
2016-11-15T12:38:25.246Z,3.16
2016-11-15T12:39:24.918Z,3.14
2016-11-15T12:40:25.065Z,3.14
2016-11-15T12:41:26.600Z,3.19
2016-11-15T12:42:25.063Z,3.14
2016-11-15T12:43:25.489Z,3.16
2016-11-15T12:44:24.790Z,3.13
2016-11-15T12:45:25.556Z,3.16
2016-11-15T12:46:25.103Z,3.16
2016-11-15T12:47:25.220Z,3.16
2016-11-15T12:48:25.625Z,3.19
2016-11-15T12:49:25.777Z,3.21
2016-11-15T12:50:25.267Z,3.23
2016-11-15T12:51:25.515Z,3.16
2016-11-15T12:52:26.166Z,3.16
2016-11-15T12:53:25.025Z,3.19
2016-11-15T12:54:25.293Z,3.19
2016-11-15T12:55:25.686Z,3.21
2016-11-15T12:56:25.978Z,3.23
2016-11-15T12:57:25.226Z,3.22
2016-11-15T12:58:25.207Z,3.16
2016-11-15T12:59:26.430Z,3.22
2016-11-15T13:00:25.621Z,3.19
2016-11-15T13:01:26.271Z,3.21
2016-11-15T13:02:25.759Z,3.19
2016-11-15T13:03:25.941Z,3.18
2016-11-15T13:04:25.598Z,3.19
2016-11-15T13:05:25.767Z,3.13
2016-11-15T13:06:25.780Z,3.23
2016-11-15T13:07:25.885Z,3.26
2016-11-15T13:08:25.823Z,3.23
2016-11-15T13:09:25.470Z,3.34
2016-11-15T13:10:25.515Z,3.23
2016-11-15T13:11:26.085Z,3.28
2016-11-15T13:12:26.101Z,3.25
2016-11-15T13:13:26.255Z,3.23
2016-11-15T13:14:25.702Z,3.23
2016-11-15T13:15:26.045Z,3.18
2016-11-15T13:16:26.884Z,3.29
2016-11-15T13:17:25.966Z,3.32
2016-11-15T13:18:25.529Z,3.25
2016-11-15T13:19:26.275Z,3.26
2016-11-15T13:20:25.667Z,3.26
2016-11-15T13:21:26.820Z,3.29
2016-11-15T13:22:25.934Z,3.29